Time;durP1;ratioP1;P1;durP2;ratioP2;P2;SDS_P1;SDS_P2;PMS_P1;PMS_P2;Temp;Humidity;BMP_temperature;BMP_pressure;BME280_temperature;BME280_humidity;BME280_pressure;Samples;Min_cycle;Max_cycle;Signal;HPM_P1;HPM_P2
2021/04/05 00:00:35;;;;;;;5.25;2.33;;;4.50;62.50;;;;;;5093524;28;20446;-77
2021/04/05 00:03:02;;;;;;;4.03;2.47;;;4.50;62.40;;;;;;5095062;28;20055;-77
2021/04/05 00:05:35;;;;;;;5.35;2.83;;;4.50;62.30;;;;;;5093822;28;20110;-77
2021/04/05 00:08:00;;;;;;;4.35;2.40;;;4.50;62.40;;;;;;5094883;28;20119;-78
2021/04/05 00:10:47;;;;;;;6.97;2.40;;;4.50;62.50;;;;;;5094204;28;20068;-77
2021/04/05 00:13:26;;;;;;;4.22;2.50;;;4.50;62.50;;;;;;5093625;28;20048;-76
2021/04/05 00:15:53;;;;;;;6.63;2.22;;;4.50;62.50;;;;;;5081418;28;20024;-78
2021/04/05 00:18:22;;;;;;;6.38;2.80;;;4.50;62.50;;;;;;5093588;28;20107;-78
2021/04/05 00:21:01;;;;;;;5.18;2.33;;;4.50;62.50;;;;;;5094784;28;20035;-77
2021/04/05 00:23:27;;;;;;;3.60;2.25;;;4.50;62.60;;;;;;5095134;28;20028;-76
2021/04/05 00:26:03;;;;;;;3.05;2.40;;;4.50;62.60;;;;;;5094441;28;20405;-78
2021/04/05 00:28:29;;;;;;;2.70;1.95;;;4.50;62.60;;;;;;5094473;28;20020;-77
2021/04/05 00:30:55;;;;;;;5.10;2.00;;;4.50;62.40;;;;;;5093992;28;20095;-78
2021/04/05 00:33:22;;;;;;;3.08;1.80;;;4.50;62.50;;;;;;5092224;28;20099;-75
2021/04/05 00:35:51;;;;;;;2.55;1.67;;;4.50;62.60;;;;;;5094174;28;20381;-77
2021/04/05 00:38:17;;;;;;;4.85;2.42;;;4.50;62.50;;;;;;5094160;28;20104;-77
2021/04/05 00:41:05;;;;;;;3.38;2.13;;;4.60;62.60;;;;;;5094282;28;20052;-78
2021/04/05 00:43:31;;;;;;;;;;;4.60;62.50;;;;;;5083267;28;20017;-76
2021/04/05 00:45:57;;;;;;;2.83;2.25;;;4.60;62.20;;;;;;5094040;28;19911;-76
2021/04/05 00:48:26;;;;;;;3.92;2.38;;;4.50;62.50;;;;;;5094169;28;20069;-75
2021/04/05 00:50:55;;;;;;;2.75;1.98;;;4.50;62.70;;;;;;5094718;28;20028;-74
2021/04/05 00:53:56;;;;;;;6.45;2.17;;;4.50;62.80;;;;;;5092783;28;20020;-77
2021/04/05 00:56:25;;;;;;;3.00;2.05;;;4.50;63.00;;;;;;5084581;28;20086;-75
2021/04/05 00:58:53;;;;;;;3.65;1.90;;;4.50;63.00;;;;;;5093769;28;20024;-77
2021/04/05 01:01:22;;;;;;;3.17;2.25;;;4.40;63.00;;;;;;5093553;28;20024;-77
2021/04/05 01:03:49;;;;;;;4.20;1.95;;;4.40;63.10;;;;;;5093960;28;20051;-76
2021/04/05 01:06:20;;;;;;;4.70;2.75;;;4.40;63.20;;;;;;5093875;28;20020;-77
2021/04/05 01:08:47;;;;;;;3.08;1.88;;;4.40;63.20;;;;;;5093741;28;20031;-76
2021/04/05 01:11:15;;;;;;;3.17;1.90;;;4.40;63.10;;;;;;5093591;28;20036;-76
2021/04/05 01:13:41;;;;;;;3.00;1.63;;;4.40;63.10;;;;;;5093618;28;20405;-76
2021/04/05 01:16:08;;;;;;;4.80;1.67;;;4.40;63.10;;;;;;5093865;28;20427;-77
2021/04/05 01:18:34;;;;;;;3.25;1.65;;;4.40;63.00;;;;;;5093737;28;20028;-77
2021/04/05 01:21:01;;;;;;;2.70;2.10;;;4.30;63.10;;;;;;5093928;28;20378;-75
2021/04/05 01:23:27;;;;;;;3.38;2.17;;;4.40;63.30;;;;;;5093234;28;20524;-77
2021/04/05 01:25:55;;;;;;;2.03;1.60;;;4.40;63.30;;;;;;5093887;28;20150;-76
2021/04/05 01:28:21;;;;;;;4.60;2.28;;;4.30;63.30;;;;;;5097477;28;20020;-76
2021/04/05 01:30:50;;;;;;;2.85;1.75;;;4.30;63.50;;;;;;5111463;28;20059;-77
2021/04/05 01:33:24;;;;;;;3.70;1.75;;;4.30;63.50;;;;;;5095616;28;20043;-78
2021/04/05 01:35:55;;;;;;;3.97;1.70;;;4.30;63.60;;;;;;5093294;28;20027;-78
2021/04/05 01:38:30;;;;;;;3.28;2.33;;;4.20;63.70;;;;;;5093242;28;20018;-79
2021/04/05 01:40:59;;;;;;;4.10;2.13;;;4.20;63.90;;;;;;5093825;28;20028;-76
2021/04/05 01:43:25;;;;;;;6.25;2.58;;;4.30;64.00;;;;;;5093028;28;20023;-78
2021/04/05 01:45:54;;;;;;;3.83;2.38;;;4.30;63.90;;;;;;5093232;28;20024;-78
2021/04/05 01:48:23;;;;;;;2.85;2.35;;;4.30;64.00;;;;;;5093042;28;20028;-78
2021/04/05 01:50:49;;;;;;;3.72;2.28;;;4.30;63.80;;;;;;5091801;28;20024;-78
2021/04/05 01:53:18;;;;;;;6.03;2.45;;;4.30;63.70;;;;;;5093004;28;20052;-78
2021/04/05 01:55:45;;;;;;;6.05;2.70;;;4.30;63.80;;;;;;5092917;28;20016;-76
2021/04/05 01:58:11;;;;;;;3.25;2.17;;;4.30;63.80;;;;;;5091854;28;20024;-77
2021/04/05 02:00:39;;;;;;;4.13;2.35;;;4.30;64.60;;;;;;5093324;28;20023;-76
2021/04/05 02:03:10;;;;;;;3.63;2.65;;;4.30;64.10;;;;;;5092793;28;20111;-76
2021/04/05 02:05:42;;;;;;;6.50;2.70;;;4.30;64.10;;;;;;5092634;28;20032;-77
2021/04/05 02:08:08;;;;;;;4.50;2.20;;;4.20;64.60;;;;;;5092332;28;20023;-77
2021/04/05 02:10:35;;;;;;;7.85;3.42;;;4.20;64.20;;;;;;5091205;28;20451;-78
2021/04/05 02:13:01;;;;;;;2.63;2.33;;;4.20;64.20;;;;;;5092748;28;20362;-77
2021/04/05 02:15:27;;;;;;;3.80;2.60;;;4.20;64.20;;;;;;5091041;28;20280;-79
2021/04/05 02:17:53;;;;;;;4.60;2.67;;;4.20;64.30;;;;;;5092714;28;20019;-78
2021/04/05 02:20:20;;;;;;;4.45;2.65;;;4.20;64.30;;;;;;5092451;28;20020;-77
2021/04/05 02:22:48;;;;;;;4.07;2.87;;;4.20;64.50;;;;;;5093107;28;20028;-78
2021/04/05 02:25:20;;;;;;;2.95;2.65;;;4.10;64.70;;;;;;5092500;28;20043;-78
2021/04/05 02:27:47;;;;;;;8.30;3.08;;;4.10;64.90;;;;;;5092076;28;20039;-76
2021/04/05 02:30:22;;;;;;;2.85;2.30;;;4.00;65.00;;;;;;5090999;28;20036;-76
2021/04/05 02:32:58;;;;;;;4.60;2.35;;;4.00;65.10;;;;;;5092693;28;20024;-79
2021/04/05 02:35:26;;;;;;;7.35;2.28;;;4.00;65.20;;;;;;5092422;28;20531;-77
2021/04/05 02:37:53;;;;;;;5.28;2.92;;;3.90;65.30;;;;;;5092256;28;20016;-78
2021/04/05 02:40:20;;;;;;;4.07;2.70;;;3.90;65.60;;;;;;5092818;28;20473;-78
2021/04/05 02:42:47;;;;;;;4.75;3.15;;;3.80;65.80;;;;;;5091197;28;20063;-78
2021/04/05 02:45:16;;;;;;;6.55;2.80;;;3.80;66.00;;;;;;5092607;28;20493;-77
2021/04/05 02:47:43;;;;;;;3.65;2.92;;;3.80;66.10;;;;;;5092835;28;20032;-79
2021/04/05 02:50:10;;;;;;;3.33;2.55;;;3.80;66.10;;;;;;5092896;28;20486;-75
2021/04/05 02:52:38;;;;;;;4.53;2.83;;;3.80;66.20;;;;;;5092948;28;20032;-77
2021/04/05 02:55:05;;;;;;;;;;;3.80;66.40;;;;;;5093236;28;20024;-78
2021/04/05 02:57:34;;;;;;;6.15;3.22;;;3.70;66.10;;;;;;5092800;28;19908;-78
2021/04/05 03:00:01;;;;;;;8.13;3.08;;;3.70;66.60;;;;;;5092885;28;20554;-78
2021/04/05 03:02:27;;;;;;;5.68;2.80;;;3.70;66.60;;;;;;5095988;28;20505;-76
2021/04/05 03:04:53;;;;;;;3.83;2.47;;;3.80;66.70;;;;;;5097276;28;20028;-78
2021/04/05 03:07:18;;;;;;;7.05;2.63;;;3.80;66.60;;;;;;5086021;28;20021;-78
2021/04/05 03:09:44;;;;;;;5.97;2.70;;;3.90;66.70;;;;;;5087028;28;20024;-79
2021/04/05 03:12:11;;;;;;;3.47;2.30;;;3.90;66.60;;;;;;5091928;28;20090;-78
2021/04/05 03:14:38;;;;;;;3.40;2.22;;;3.90;66.40;;;;;;5092598;28;20028;-78
2021/04/05 03:17:08;;;;;;;6.63;3.03;;;3.90;66.40;;;;;;5094957;28;20026;-77
2021/04/05 03:19:34;;;;;;;4.45;2.83;;;3.90;66.50;;;;;;5110154;28;20032;-77
2021/04/05 03:22:00;;;;;;;4.45;2.65;;;3.90;66.50;;;;;;5095426;28;20474;-79
2021/04/05 03:24:26;;;;;;;3.78;2.33;;;3.90;66.50;;;;;;5090900;28;20119;-78
2021/04/05 03:26:52;;;;;;;4.65;2.75;;;4.00;66.40;;;;;;5092082;28;20141;-78
2021/04/05 03:29:19;;;;;;;3.85;2.47;;;3.90;66.40;;;;;;5092218;28;20421;-78
2021/04/05 03:31:47;;;;;;;5.07;2.40;;;3.90;66.40;;;;;;5092210;28;20036;-77
2021/04/05 03:34:19;;;;;;;6.88;3.38;;;3.90;66.60;;;;;;5092070;28;20024;-77
2021/04/05 03:36:53;;;;;;;6.53;3.28;;;3.90;66.80;;;;;;5090935;28;20020;-79
2021/04/05 03:39:19;;;;;;;3.88;2.70;;;3.90;66.80;;;;;;5092375;28;20028;-77
2021/04/05 03:41:56;;;;;;;5.78;3.42;;;3.90;66.60;;;;;;5095647;28;20020;-77
2021/04/05 03:44:34;;;;;;;6.93;3.20;;;3.90;66.70;;;;;;5095352;28;20032;-78
2021/04/05 03:47:09;;;;;;;;;;;4.00;66.70;;;;;;5095843;28;20046;-78
2021/04/05 03:49:47;;;;;;;6.18;2.92;;;4.00;66.40;;;;;;5094241;28;19911;-78
2021/04/05 03:52:18;;;;;;;;;;;3.90;66.70;;;;;;5095768;28;20024;-77
2021/04/05 03:54:54;;;;;;;6.28;2.47;;;4.00;66.60;;;;;;5095091;28;19912;-76
2021/04/05 03:57:28;;;;;;;4.03;2.67;;;3.90;67.10;;;;;;5095307;28;20089;-78
2021/04/05 03:59:56;;;;;;;6.15;3.10;;;3.80;67.40;;;;;;5095004;28;20020;-79
2021/04/05 04:02:32;;;;;;;5.05;2.47;;;3.80;67.80;;;;;;5095506;28;20028;-77
2021/04/05 04:05:08;;;;;;;9.23;3.67;;;3.90;67.80;;;;;;5094729;28;20039;-78
2021/04/05 04:07:38;;;;;;;5.85;2.67;;;3.90;67.70;;;;;;5095150;28;20042;-79
2021/04/05 04:10:18;;;;;;;4.88;2.67;;;4.00;67.70;;;;;;5093372;28;20028;-79
2021/04/05 04:12:48;;;;;;;7.85;3.47;;;4.00;67.50;;;;;;5095921;28;20103;-79
2021/04/05 04:15:15;;;;;;;5.43;2.78;;;4.10;67.50;;;;;;5094922;28;20510;-80
2021/04/05 04:17:43;;;;;;;6.80;3.40;;;4.20;67.50;;;;;;5095147;28;20040;-79
2021/04/05 04:20:14;;;;;;;10.77;3.00;;;4.30;67.30;;;;;;5095919;28;20020;-80
2021/04/05 04:22:41;;;;;;;4.10;2.50;;;4.40;67.00;;;;;;5094783;28;20020;-79
2021/04/05 04:25:07;;;;;;;10.98;4.13;;;4.50;67.00;;;;;;5094571;28;20366;-78
2021/04/05 04:27:35;;;;;;;6.40;2.70;;;4.60;66.90;;;;;;5093361;28;20089;-78
2021/04/05 04:30:00;;;;;;;7.95;2.90;;;4.70;66.20;;;;;;5094364;28;20103;-79
2021/04/05 04:32:26;;;;;;;5.57;3.40;;;4.70;65.90;;;;;;5092940;28;20165;-78
2021/04/05 04:34:52;;;;;;;9.10;2.80;;;4.80;65.90;;;;;;5092813;28;20028;-79
2021/04/05 04:37:19;;;;;;;11.68;3.05;;;4.90;65.80;;;;;;5094082;28;20023;-77
2021/04/05 04:39:45;;;;;;;6.85;3.55;;;4.90;65.50;;;;;;5092893;28;20020;-78
2021/04/05 04:42:11;;;;;;;7.07;2.95;;;5.00;65.60;;;;;;5094162;28;20031;-78
2021/04/05 04:44:37;;;;;;;9.93;3.10;;;5.10;65.40;;;;;;5092793;28;20032;-79
2021/04/05 04:47:03;;;;;;;7.78;3.25;;;5.10;65.00;;;;;;5093143;28;20016;-78
2021/04/05 04:49:29;;;;;;;7.80;3.10;;;5.20;64.90;;;;;;5094038;28;20027;-77
2021/04/05 04:51:55;;;;;;;8.48;2.78;;;5.20;64.60;;;;;;5094521;28;20020;-78
2021/04/05 04:54:21;;;;;;;10.20;3.42;;;5.20;64.10;;;;;;5093576;28;20028;-78
2021/04/05 04:56:47;;;;;;;6.93;2.88;;;5.20;64.30;;;;;;5079964;28;20024;-78
2021/04/05 04:59:13;;;;;;;5.43;3.40;;;5.30;64.10;;;;;;5094315;28;20091;-78
2021/04/05 05:01:41;;;;;;;10.48;3.60;;;5.40;63.80;;;;;;5092773;28;20031;-78
2021/04/05 05:04:23;;;;;;;10.43;2.78;;;5.40;63.90;;;;;;5095117;28;20035;-79
2021/04/05 05:06:52;;;;;;;11.38;3.63;;;5.50;63.30;;;;;;5102430;28;20546;-78
2021/04/05 05:09:19;;;;;;;9.52;3.65;;;5.50;63.30;;;;;;5111384;28;20017;-79
2021/04/05 05:11:46;;;;;;;9.30;3.45;;;5.60;63.30;;;;;;5093938;28;20036;-79
2021/04/05 05:14:15;;;;;;;10.23;4.05;;;5.60;62.90;;;;;;5093626;28;20016;-79
2021/04/05 05:16:42;;;;;;;7.93;3.05;;;5.70;63.00;;;;;;5092500;28;20022;-77
2021/04/05 05:19:08;;;;;;;7.32;2.90;;;5.80;62.70;;;;;;5093668;28;20016;-77
2021/04/05 05:21:51;;;;;;;6.80;3.63;;;5.90;62.50;;;;;;5093936;28;20028;-79
2021/04/05 05:24:20;;;;;;;6.07;3.20;;;6.00;62.30;;;;;;5093409;28;20080;-78
2021/04/05 05:26:49;;;;;;;4.40;2.45;;;6.00;62.10;;;;;;5093629;28;20016;-79
2021/04/05 05:29:18;;;;;;;9.30;3.22;;;6.10;61.80;;;;;;5093498;28;20584;-79
2021/04/05 05:31:45;;;;;;;14.68;3.75;;;6.00;61.90;;;;;;5093477;28;20404;-78
2021/04/05 05:34:21;;;;;;;6.40;3.45;;;6.00;62.00;;;;;;5087434;28;20361;-79
2021/04/05 05:36:48;;;;;;;4.90;2.90;;;6.00;61.80;;;;;;5086608;28;20032;-78
2021/04/05 05:39:16;;;;;;;9.23;3.47;;;6.00;62.00;;;;;;5091601;28;20032;-80
2021/04/05 05:42:04;;;;;;;7.82;3.05;;;6.10;62.10;;;;;;5091852;28;20024;-78
2021/04/05 05:44:40;;;;;;;6.40;3.15;;;6.10;61.70;;;;;;5092672;28;20137;-78
2021/04/05 05:47:43;;;;;;;12.93;4.07;;;6.10;61.80;;;;;;5093430;28;20354;-79
2021/04/05 05:50:38;;;;;;;8.75;3.25;;;6.00;62.00;;;;;;5080317;28;20091;-78
2021/04/05 05:53:19;;;;;;;8.27;4.07;;;5.80;62.30;;;;;;5092848;28;20027;-81
2021/04/05 05:56:29;;;;;;;6.72;3.20;;;5.80;62.50;;;;;;5094988;28;20112;-79
2021/04/05 05:59:16;;;;;;;5.40;2.97;;;5.90;62.60;;;;;;5092756;28;20020;-80
2021/04/05 06:02:04;;;;;;;15.95;3.08;;;5.90;62.50;;;;;;5092443;28;20023;-82
2021/04/05 06:04:57;;;;;;;12.02;4.40;;;6.00;62.60;;;;;;5092477;28;20419;-81
2021/04/05 06:07:46;;;;;;;10.77;4.00;;;6.10;62.50;;;;;;5082226;28;20084;-78
2021/04/05 06:10:59;;;;;;;7.25;2.75;;;6.10;61.90;;;;;;5092371;28;20020;-80
2021/04/05 06:13:36;;;;;;;5.22;3.22;;;6.00;61.80;;;;;;5028828;28;20024;-80
2021/04/05 06:16:15;;;;;;;7.68;3.33;;;6.00;61.90;;;;;;5093041;28;20106;-77
2021/04/05 06:19:05;;;;;;;6.35;3.70;;;5.90;62.40;;;;;;5092638;28;20020;-79
2021/04/05 06:21:45;;;;;;;17.63;3.72;;;5.90;62.30;;;;;;5092465;28;20070;-79
2021/04/05 06:24:25;;;;;;;10.13;3.50;;;6.10;62.20;;;;;;5079598;28;20028;-78
2021/04/05 06:27:10;;;;;;;11.90;3.75;;;6.20;61.70;;;;;;5086177;28;20110;-79
2021/04/05 06:30:03;;;;;;;6.00;3.38;;;6.40;61.50;;;;;;5086602;28;20034;-81
2021/04/05 06:32:48;;;;;;;12.55;4.03;;;6.40;60.70;;;;;;5085572;28;20102;-83
2021/04/05 06:35:43;;;;;;;8.93;3.83;;;6.60;60.60;;;;;;5080803;28;20464;-83
2021/04/05 06:38:30;;;;;;;7.20;3.47;;;6.80;59.70;;;;;;5092505;28;20035;-83
2021/04/05 06:41:00;;;;;;;7.05;3.45;;;6.80;59.10;;;;;;5092336;28;20051;-80
2021/04/05 06:43:45;;;;;;;11.32;2.97;;;6.90;59.10;;;;;;5092505;28;20020;-79
2021/04/05 06:46:22;;;;;;;11.07;3.33;;;7.10;58.80;;;;;;5090930;28;20020;-79
2021/04/05 06:49:16;;;;;;;10.10;3.50;;;7.20;58.20;;;;;;5092493;28;20358;-79
2021/04/05 06:51:58;;;;;;;10.77;3.55;;;7.10;57.30;;;;;;5092459;28;20031;-80
2021/04/05 06:54:31;;;;;;;9.15;4.15;;;7.00;57.50;;;;;;5093184;28;20040;-79
2021/04/05 06:57:03;;;;;;;6.38;3.35;;;7.10;57.40;;;;;;5092909;28;20469;-80
2021/04/05 07:00:00;;;;;;;5.18;3.30;;;7.20;57.10;;;;;;5107457;28;20055;-80
2021/04/05 07:03:05;;;;;;;4.43;2.58;;;7.30;56.70;;;;;;5093418;28;20454;-81
2021/04/05 07:06:08;;;;;;;13.07;4.50;;;7.30;56.80;;;;;;5080428;28;20020;-80
2021/04/05 07:08:34;;;;;;;15.27;4.45;;;7.30;57.10;;;;;;5092493;28;20020;-80
2021/04/05 07:11:25;;;;;;;4.78;2.75;;;7.50;56.50;;;;;;5094954;28;20040;-80
2021/04/05 07:14:32;;;;;;;6.22;3.05;;;7.40;55.90;;;;;;5075178;28;20044;-80
2021/04/05 07:17:23;;;;;;;13.68;3.90;;;7.20;56.10;;;;;;5094532;28;20059;-80
2021/04/05 07:19:48;;;;;;;11.10;3.80;;;7.00;56.40;;;;;;5096168;28;20099;-80
2021/04/05 07:22:36;;;;;;;11.90;5.07;;;7.10;56.70;;;;;;5096151;28;20513;-79
2021/04/05 07:25:08;;;;;;;8.18;4.25;;;7.30;56.40;;;;;;5096026;28;20028;-79
2021/04/05 07:27:50;;;;;;;7.30;3.50;;;7.30;56.00;;;;;;5096106;28;20482;-81
2021/04/05 07:30:30;;;;;;;4.63;2.67;;;7.40;55.40;;;;;;5094170;28;20027;-79
2021/04/05 07:33:05;;;;;;;5.22;4.07;;;7.30;55.00;;;;;;5095664;28;20020;-80
2021/04/05 07:35:54;;;;;;;17.88;5.95;;;7.00;55.30;;;;;;5095311;28;20043;-83
2021/04/05 07:38:27;;;;;;;6.65;3.42;;;7.00;55.80;;;;;;5095515;28;20016;-78
2021/04/05 07:41:08;;;;;;;7.88;3.97;;;7.10;55.50;;;;;;5095365;28;20516;-80
2021/04/05 07:44:00;;;;;;;8.70;2.70;;;7.20;55.70;;;;;;5096441;28;20027;-78
2021/04/05 07:46:48;;;;;;;5.70;3.03;;;7.10;55.00;;;;;;5094221;28;20096;-78
2021/04/05 07:49:38;;;;;;;12.32;3.83;;;7.20;55.00;;;;;;5095493;28;20062;-80
2021/04/05 07:52:25;;;;;;;9.27;2.92;;;7.40;54.80;;;;;;5091934;28;20038;-79
2021/04/05 07:54:51;;;;;;;5.95;3.58;;;7.50;54.30;;;;;;5095207;28;20073;-78
2021/04/05 07:57:26;;;;;;;5.00;2.85;;;7.50;54.30;;;;;;5095129;28;20082;-80
2021/04/05 08:00:04;;;;;;;10.02;4.18;;;7.50;53.10;;;;;;5095174;28;20020;-79
2021/04/05 08:02:43;;;;;;;6.35;3.53;;;7.50;53.60;;;;;;5095675;28;20111;-78
2021/04/05 08:05:19;;;;;;;5.43;3.53;;;7.50;53.60;;;;;;5095225;28;20119;-79
2021/04/05 08:08:20;;;;;;;4.53;2.20;;;7.50;53.00;;;;;;5094894;28;20039;-80
2021/04/05 08:11:02;;;;;;;9.73;2.83;;;7.60;52.60;;;;;;5052846;28;20044;-79
2021/04/05 08:13:58;;;;;;;6.45;2.35;;;7.50;52.80;;;;;;5095047;28;20016;-78
2021/04/05 08:16:43;;;;;;;6.28;3.35;;;7.70;52.60;;;;;;5095001;28;20040;-79
2021/04/05 08:19:16;;;;;;;9.35;3.38;;;8.00;52.30;;;;;;5082835;28;20029;-79
2021/04/05 08:21:52;;;;;;;4.53;2.55;;;8.00;51.60;;;;;;5094568;28;20358;-80
2021/04/05 08:24:36;;;;;;;6.13;2.83;;;8.00;51.40;;;;;;5094563;28;20095;-81
2021/04/05 08:27:21;;;;;;;9.48;2.80;;;8.00;51.30;;;;;;5092780;28;20096;-80
2021/04/05 08:30:02;;;;;;;7.45;2.55;;;8.10;51.40;;;;;;5096400;28;20492;-80
2021/04/05 08:32:47;;;;;;;7.07;2.88;;;8.20;51.30;;;;;;5097433;28;20389;-80
2021/04/05 08:35:38;;;;;;;5.80;2.60;;;8.20;50.60;;;;;;5093828;28;20139;-79
2021/04/05 08:38:20;;;;;;;6.10;3.05;;;8.40;50.90;;;;;;5094227;28;20024;-80
2021/04/05 08:41:11;;;;;;;6.68;2.63;;;8.70;50.80;;;;;;5092994;28;20036;-78
2021/04/05 08:44:06;;;;;;;9.85;2.67;;;8.70;50.30;;;;;;5094329;28;20012;-79
2021/04/05 08:46:33;;;;;;;9.75;3.75;;;9.00;49.50;;;;;;5067556;28;20106;-81
2021/04/05 08:49:01;;;;;;;7.18;3.20;;;9.10;49.30;;;;;;5094752;28;20028;-81
2021/04/05 08:51:36;;;;;;;9.10;3.15;;;9.10;48.70;;;;;;5097679;28;20055;-80
2021/04/05 08:54:05;;;;;;;7.13;2.45;;;9.30;47.80;;;;;;5110654;28;20032;-80
2021/04/05 08:56:53;;;;;;;4.50;2.17;;;9.10;47.10;;;;;;5094559;28;20047;-80
2021/04/05 08:59:40;;;;;;;7.43;2.83;;;9.00;46.60;;;;;;5094113;28;20095;-80
2021/04/05 09:02:20;;;;;;;5.20;2.05;;;8.90;46.70;;;;;;5081864;28;20047;-81
2021/04/05 09:04:47;;;;;;;10.85;2.83;;;8.90;46.40;;;;;;5093845;28;20150;-79
2021/04/05 09:07:25;;;;;;;7.90;2.50;;;9.10;46.40;;;;;;5093861;28;20036;-79
2021/04/05 09:09:56;;;;;;;5.45;2.03;;;9.20;45.10;;;;;;5093546;28;20396;-80
2021/04/05 09:12:23;;;;;;;9.88;4.50;;;9.30;44.50;;;;;;5092667;28;20028;-79
2021/04/05 09:15:05;;;;;;;8.07;3.95;;;9.60;44.40;;;;;;5092609;28;20032;-79
2021/04/05 09:17:46;;;;;;;3.83;1.90;;;9.90;43.90;;;;;;5093635;28;20035;-80
2021/04/05 09:20:21;;;;;;;11.80;3.38;;;10.20;42.80;;;;;;5093221;28;20484;-81
2021/04/05 09:23:05;;;;;;;5.28;2.45;;;10.50;43.30;;;;;;5093767;28;20379;-79
2021/04/05 09:25:47;;;;;;;6.45;3.15;;;11.00;42.00;;;;;;5057872;28;20123;-81
2021/04/05 09:28:16;;;;;;;6.72;2.90;;;11.50;41.40;;;;;;5093421;28;20064;-80
2021/04/05 09:31:01;;;;;;;8.82;2.60;;;11.80;40.20;;;;;;5093081;28;20480;-80
2021/04/05 09:33:57;;;;;;;5.32;1.83;;;12.10;39.60;;;;;;5093189;28;20111;-79
2021/04/05 09:36:54;;;;;;;6.32;2.47;;;12.20;38.70;;;;;;5082770;28;20039;-81
2021/04/05 09:40:04;;;;;;;7.10;2.40;;;12.20;38.80;;;;;;5088868;28;20036;-81
2021/04/05 09:43:09;;;;;;;4.65;2.45;;;12.30;38.60;;;;;;5092948;28;20370;-79
2021/04/05 09:45:37;;;;;;;7.30;1.60;;;13.00;37.90;;;;;;5093035;28;20024;-80
2021/04/05 09:48:34;;;;;;;13.90;2.78;;;14.50;35.10;;;;;;5091569;28;20516;-80
2021/04/05 09:51:08;;;;;;;;;;;15.60;34.30;;;;;;5091877;28;20020;-79
2021/04/05 09:53:53;;;;;;;4.57;1.95;;;16.70;32.40;;;;;;5080416;28;19908;-79
2021/04/05 09:56:25;;;;;;;7.50;2.38;;;17.10;31.20;;;;;;5092717;28;20211;-80
2021/04/05 09:59:14;;;;;;;3.88;2.53;;;17.30;30.20;;;;;;5092774;28;20035;-80
2021/04/05 10:01:41;;;;;;;10.88;2.42;;;18.10;29.90;;;;;;5092172;28;20119;-80
2021/04/05 10:04:16;;;;;;;4.15;1.85;;;18.60;28.80;;;;;;5093325;28;20040;-81
2021/04/05 10:06:43;;;;;;;4.40;2.25;;;18.50;28.50;;;;;;5093919;28;20035;-80
2021/04/05 10:09:09;;;;;;;8.88;3.20;;;17.50;28.90;;;;;;5100583;28;20020;-81
2021/04/05 10:11:40;;;;;;;6.63;2.88;;;16.50;29.60;;;;;;5095905;28;20082;-80
2021/04/05 10:14:10;;;;;;;7.32;3.03;;;15.90;30.60;;;;;;5093693;28;20043;-80
2021/04/05 10:16:39;;;;;;;5.38;2.13;;;16.70;30.80;;;;;;5092499;28;20023;-79
2021/04/05 10:19:16;;;;;;;4.55;2.08;;;16.50;30.00;;;;;;5092520;28;20069;-79
2021/04/05 10:21:47;;;;;;;10.07;3.20;;;15.90;30.70;;;;;;5092624;28;20028;-82
2021/04/05 10:24:14;;;;;;;8.23;2.67;;;15.20;31.10;;;;;;5092941;28;20501;-79
2021/04/05 10:26:42;;;;;;;4.63;1.80;;;14.10;31.80;;;;;;5092848;28;20039;-79
2021/04/05 10:29:14;;;;;;;2.08;1.15;;;13.00;32.30;;;;;;5078984;28;20392;-79
2021/04/05 10:31:41;;;;;;;6.75;2.03;;;12.20;34.00;;;;;;5091532;28;20036;-80
2021/04/05 10:34:10;;;;;;;12.07;4.43;;;11.90;35.10;;;;;;5078428;28;20039;-82
2021/04/05 10:36:44;;;;;;;6.47;2.50;;;12.10;35.60;;;;;;5092480;28;20060;-80
2021/04/05 10:39:10;;;;;;;11.27;4.63;;;12.20;35.60;;;;;;5092126;28;20056;-79
2021/04/05 10:41:55;;;;;;;6.05;2.42;;;12.30;35.00;;;;;;5092326;28;20020;-79
2021/04/05 10:44:24;;;;;;;13.30;4.03;;;12.10;34.00;;;;;;5092198;28;20044;-79
2021/04/05 10:46:57;;;;;;;4.13;1.50;;;11.70;34.30;;;;;;5092005;28;20020;-79
2021/04/05 10:49:29;;;;;;;15.40;9.05;;;11.70;34.40;;;;;;5107853;28;20028;-79
2021/04/05 10:52:10;;;;;;;7.00;3.65;;;11.50;35.30;;;;;;5112070;28;20028;-79
2021/04/05 10:54:46;;;;;;;8.15;2.15;;;11.40;35.10;;;;;;5097242;28;20067;-79
2021/04/05 10:57:16;;;;;;;8.88;2.30;;;11.40;35.60;;;;;;5085733;28;20020;-80
2021/04/05 11:00:18;;;;;;;11.75;4.00;;;11.10;35.20;;;;;;5096517;28;20077;-80
2021/04/05 11:03:01;;;;;;;4.65;2.10;;;11.10;36.10;;;;;;5044511;28;20460;-81
2021/04/05 11:05:32;;;;;;;6.97;2.20;;;10.90;36.10;;;;;;5084139;28;20070;-81
2021/04/05 11:08:00;;;;;;;4.78;1.98;;;10.80;36.90;;;;;;5096344;28;20124;-82
2021/04/05 11:10:29;;;;;;;2.78;1.30;;;10.70;36.60;;;;;;5096460;28;20059;-80
2021/04/05 11:13:04;;;;;;;4.38;2.05;;;10.50;36.80;;;;;;5096147;28;20025;-78
2021/04/05 11:15:31;;;;;;;3.83;1.80;;;10.50;37.40;;;;;;5096456;28;20036;-81
2021/04/05 11:18:02;;;;;;;4.80;1.65;;;10.70;37.40;;;;;;5095521;28;20095;-80
2021/04/05 11:20:35;;;;;;;5.00;2.25;;;10.80;37.40;;;;;;5095040;28;20016;-80
2021/04/05 11:23:21;;;;;;;6.13;2.63;;;10.90;37.60;;;;;;5096260;28;20438;-81
2021/04/05 11:25:58;;;;;;;13.25;2.20;;;10.60;37.60;;;;;;5084294;28;20012;-80
2021/04/05 11:28:26;;;;;;;8.55;2.65;;;10.30;37.60;;;;;;5096017;28;20020;-79
2021/04/05 11:31:12;;;;;;;2.90;1.58;;;10.20;38.50;;;;;;5089192;28;20031;-80
2021/04/05 11:33:48;;;;;;;5.90;2.42;;;10.20;38.30;;;;;;5091148;28;20111;-79
2021/04/05 11:36:15;;;;;;;4.85;1.88;;;10.10;38.50;;;;;;5095763;28;20032;-79
2021/04/05 11:38:47;;;;;;;4.80;2.33;;;10.20;38.60;;;;;;5095810;28;20016;-80
2021/04/05 11:41:17;;;;;;;2.08;1.63;;;10.50;38.70;;;;;;5095756;28;20020;-79
2021/04/05 11:43:49;;;;;;;12.20;2.55;;;10.60;38.60;;;;;;5096128;28;20052;-80
2021/04/05 11:46:16;;;;;;;7.93;2.33;;;10.60;38.90;;;;;;5095163;28;20065;-79
2021/04/05 11:48:43;;;;;;;5.07;1.73;;;10.50;39.10;;;;;;5097355;28;20022;-78
2021/04/05 11:51:11;;;;;;;4.38;1.65;;;10.30;39.10;;;;;;5095194;28;20024;-80
2021/04/05 11:54:08;;;;;;;4.22;1.50;;;10.10;38.50;;;;;;5095438;28;20024;-81
2021/04/05 11:56:36;;;;;;;8.15;2.50;;;9.90;39.20;;;;;;5093629;28;20028;-81
2021/04/05 11:59:12;;;;;;;1.92;1.35;;;9.70;39.20;;;;;;5095466;28;20024;-79
2021/04/05 12:02:15;;;;;;;3.80;1.65;;;9.70;39.20;;;;;;5094561;28;20388;-80
2021/04/05 12:04:47;;;;;;;5.53;1.90;;;9.50;39.40;;;;;;5095445;28;20085;-80
2021/04/05 12:07:22;;;;;;;5.45;2.50;;;9.50;40.20;;;;;;5093971;28;20036;-83
2021/04/05 12:10:05;;;;;;;5.57;2.45;;;9.60;40.30;;;;;;5095463;28;20020;-80
2021/04/05 12:12:44;;;;;;;7.82;2.10;;;9.70;41.00;;;;;;5094983;28;20040;-80
2021/04/05 12:15:15;;;;;;;4.95;1.92;;;9.80;40.60;;;;;;5095038;28;20027;-80
2021/04/05 12:17:46;;;;;;;5.80;2.03;;;9.80;39.90;;;;;;5093583;28;20109;-78
2021/04/05 12:20:14;;;;;;;4.55;2.42;;;9.60;40.00;;;;;;5094904;28;20035;-80
2021/04/05 12:22:42;;;;;;;6.15;2.00;;;9.60;40.40;;;;;;5093722;28;20035;-79
2021/04/05 12:25:09;;;;;;;5.53;2.20;;;9.60;40.40;;;;;;5093493;28;20020;-79
2021/04/05 12:27:39;;;;;;;7.05;2.20;;;9.60;40.60;;;;;;5094960;28;20104;-80
2021/04/05 12:30:09;;;;;;;10.73;3.72;;;9.70;41.50;;;;;;5094905;28;20036;-79
2021/04/05 12:32:37;;;;;;;3.42;2.53;;;9.80;40.80;;;;;;5094814;28;20016;-79
2021/04/05 12:35:05;;;;;;;3.95;2.08;;;9.90;40.90;;;;;;5094620;28;20055;-78
2021/04/05 12:37:31;;;;;;;;;;;10.00;40.90;;;;;;5093549;28;20016;-81
2021/04/05 12:40:00;;;;;;;3.75;1.90;;;10.20;40.70;;;;;;5094636;28;20313;-81
2021/04/05 12:42:34;;;;;;;3.22;1.88;;;10.40;39.00;;;;;;5094716;28;20516;-80
2021/04/05 12:45:01;;;;;;;9.93;2.35;;;10.70;38.80;;;;;;5081200;28;20032;-80
2021/04/05 12:47:35;;;;;;;9.45;2.30;;;10.80;38.80;;;;;;5094715;28;20028;-81
2021/04/05 12:50:06;;;;;;;3.70;1.73;;;10.80;38.10;;;;;;5081088;28;20027;-79
2021/04/05 12:52:35;;;;;;;6.40;2.30;;;10.80;38.10;;;;;;5091014;28;20023;-80
2021/04/05 12:55:07;;;;;;;5.00;2.17;;;10.60;38.10;;;;;;5097518;28;20389;-78
2021/04/05 12:57:35;;;;;;;6.20;1.92;;;10.50;38.60;;;;;;5094856;28;20472;-80
2021/04/05 13:00:05;;;;;;;5.32;2.40;;;10.30;38.80;;;;;;5094981;28;20017;-79
2021/04/05 13:02:37;;;;;;;6.55;2.25;;;10.30;38.90;;;;;;5095536;28;20408;-79
2021/04/05 13:05:03;;;;;;;5.72;2.72;;;10.30;39.00;;;;;;5095342;28;20120;-80
2021/04/05 13:07:36;;;;;;;6.75;2.22;;;10.20;39.70;;;;;;5094329;28;20044;-80
2021/04/05 13:10:07;;;;;;;7.70;2.03;;;10.20;39.00;;;;;;5093966;28;20012;-80
2021/04/05 13:12:47;;;;;;;6.32;2.88;;;10.00;39.20;;;;;;5094286;28;20016;-79
2021/04/05 13:15:24;;;;;;;2.72;2.00;;;9.80;39.60;;;;;;5093591;28;20850;-81
2021/04/05 13:17:54;;;;;;;5.63;2.30;;;9.80;39.70;;;;;;5094311;28;20475;-79
2021/04/05 13:20:27;;;;;;;4.90;1.98;;;9.70;39.50;;;;;;5093730;28;20027;-79
2021/04/05 13:22:56;;;;;;;8.05;2.60;;;9.50;40.10;;;;;;5093973;28;20032;-80
2021/04/05 13:25:36;;;;;;;5.82;2.25;;;9.60;40.80;;;;;;5099510;28;20072;-80
2021/04/05 13:28:03;;;;;;;7.22;3.30;;;9.70;40.50;;;;;;5096786;28;20394;-79
2021/04/05 13:30:39;;;;;;;3.17;1.80;;;9.70;40.10;;;;;;5093210;28;20061;-76
2021/04/05 13:33:09;;;;;;;7.43;3.25;;;9.60;39.60;;;;;;5093154;28;20422;-80